Aérodrome :
LOGIN :

S'inscrire | Disclaimer

   EN    FR    IT 

 










Légende :    VFR   VFR Marginal   IFR   IFR Intensif   IFR Très Intensif
Visi : 
Plafond : 
>= 8 km
>= 3000ft
5 à 8 km
1000 à 3000 ft
1500m à 5 km
500 à 1000 ft
800 à 1500m
200 à 500 ft
< 800m
< 200 ft
Symboles :   Orages  Brouillard  Fortes neiges  Fortes précipitations  Vent > 20 kt
SIGMETs :   Divers  Orages  Givrage  Turbulence  Onde Orograph.  Cendres Volcan.







- Altitude de l'aérodrome : 19 ft
- Code IATA : BEB
- Voir les cartes d'approche


EGPL - Benbecula

DERNIER METAR :
  • 180420Z AUTO 16005KT 9999 BKN047/// 03/01 Q1015

METARs EXPIRÉS :
  • 180350Z AUTO 16005KT 9999 FEW049/// 02/01 Q1015
  • 180320Z AUTO 15004KT 9999 BKN047/// 02/01 Q1015
  • 180250Z AUTO 16005KT 9999 BKN049/// 02/01 Q1015
  • 180220Z AUTO 17005KT 9999 FEW030/// 02/00 Q1015
  • 180150Z AUTO 16004KT 9999 NCD 02/00 Q1015

TAF TAF EGPL
Valide du 18 à 03h jusqu'au 18 à 12h UTC


180157Z 1803/1812 16012KT 9999 FEW025
ATIS : +44 1870 604 818
Pas de NOTAMs connus pour ce terrain.



MET'MAP, la Météo Aéronautique d'un coup d'oeil ! - Copyright ORBIFLY Décembre 2007 - Disclaimer

ORBIFLY MET'MAP TEAM :

Programmation & Développement : Alexandra Zaïnal
Conception & Développement : Baudouin d'Aumeries
Co-Programmation & Développement : Marc-Olivier Méhu
Soutien technique & logistique : Manuel Goepfert

Contact : metmap@orbifly.com




SOURCES & CREDITS :

   NOAA